Relevés horaires Schaffen (Belgique)


Relevés horaires à Schaffen - Lundi 20 Avr. 2026
Heure UTC1 Température [°C] Vent [km/h] Hum. [%] Pres.4 [hPa] Visi. [Km] Nébu. [octa] Préc.5 [mm] Cond.
2m. Res. Ros. Dir.2 Vit. Moy. Raf.3
23:00 7.4 6.6 3.9 NE 5.6 -- 9.3 78 1022.2(0.7/3h) >70 -- -- --
22:00 7.5 7.5 4.3 NE 3.7 -- 9.3 80 1022(0.8/3h) >70 -- -- --
21:00 8.0 8.0 3.4 N 3.7 -- 13.0 73 1021.7(1.1/3h) >70 -- -- NA
20:00 9.0 9.0 3.5 NNO 1.9 -- 9.3 68 1021.5(0.7/3h) >70 -- -- NA
19:00 10.0 9.1 3.3 N 7.4 -- 13.0 63 1021.1(0.3/3h) >70 -- -- NA
18:00 10.6 10.6 2.8 NNO 3.7 -- 13.0 58 1020.6(-0.1/3h) >70 -- -- NA
17:00 10.6 10.3 2.5 NNO 5.6 -- 13.0 57 1020.7(-0.1/3h) 15 5/8 -- --
16:00 12.3 11.8 2.5 NNO 7.4 -- 9.3 51 1020.6(-0.6/3h) >70 -- -- --
15:00 11.7 11.1 1.8 N 7.4 -- 11.1 51 1020.7(-0.9/3h) >70 -- -- NA
14:00 12.2 12.1 -- N 5.6 -- 11.1 -- 1020.7(-1.1/3h) >70 -- -- --
13:00 12.1 12.1 -0.5 N 3.7 -- 11.1 42 1021.2(-1.0/3h) >70 -- -- --
12:00 11.4 10.8 -0.2 N 7.4 -- 13.0 45 1021.7(-1.0/3h) >70 -- -- NA
11:00 12.2 12.1 1.2 N 5.6 -- 11.1 47 1022(-0.6/3h) >70 -- -- --
10:00 10.5 10.5 2.5 N 3.7 -- 9.3 58 1022.3(-0.3/3h) >70 -- -- --
09:00 9.8 9.8 4.1 NNO 1.9 -- 7.4 68 1022.7(0.1/3h) 15 -- -- NA
08:00 8.5 8.5 4.0 NE 3.7 -- 5.6 73 1022.7(0.4/3h) 15 -- -- NA
07:00 6.6 6.6 5.1 NNO 3.7 -- 3.7 90 1022.8(0.3/3h) 27 -- -- --
06:00 4.7 4.7 4.0 NNO 1.9 -- 7.4 95 1022.7(0.0/3h) 17 -- -- --
05:00 3.5 3.5 2.8 NNO 3.7 -- 3.7 95 1022.5(-0.3/3h) 15 -- -- --
04:00 4.0 4.0 3.1 NNO 1.9 -- 5.6 94 1022.6(-0.2/3h) 21 -- -- --
03:00 3.4 3.4 2.6 N 3.7 -- 7.4 94 1022.7(-0.4/3h) 23 -- -- --
02:00 4.1 4.1 2.7 N 3.7 -- 5.6 91 1022.7(-0.3/3h) 28 -- -- --
01:00 4.6 3.4 2.9 N 5.6 -- 7.4 89 1022.8(-0.3/3h) 30 -- -- --
00:00 5.3 4.2 3.0 N 5.6 -- 13.0 85 1023.1(-0.1/3h) 35 -- -- --

1 Coordinated Universal Time. Actuellement il est 15:00 locale et 13:00 UTC.

2 Le vent souffle depuis la direction indiquée vers la direction oposée.

3 Les rafales max. sont disponible 40 min après l'heure du relevé.

4 Pour les stations d'altitude (plus de 600m) le géopotentiel du niveau le plus proche de la pression obligatoire est indiqué.

5 Les stations disposant d'un diffuseur peuvent indiquer "trace". Cela signifie que des précipitations ont touchés le sol mais que la quantité est inférieure à 0.1 mm.

Récapitulatif de la journée
Température [°C] Vent [km/h] Ensoleillement4 [h] Precipitations totale5 [mm] Pression [Hpa]
Min1 Max.2 Moy.3 Max. Min Max.
3.0 13.5 0 13.0 0 h 0 min 0 1020.6 1023.1

1 Température minimale relevée entre 18:00 UTC la veille et 18:00 UTC le jour donné.

2 Température maximale relevée entre 06:00 UTC le jour donné et 06:00 UTC le lendemain.

3 Vent moyen de la journée basé sur les relevés horaires.

4 Ensoleillement en heures relevé entre 06:00 UTC la veille et 06:00 UTC le jour donné.

5 Précipitations totales tombées entre 06:00 UTC la jour donné et 06:00 UTC le lendemain.

Graphiques horaires